Crosby, Ohio
Current Conditions -  °F | °C
As of 3:35 PM on Monday 22 Dec 2014 (Local Time) from KI67 Reporting Station
Scattered Clouds Scattered Clouds  
Wind Chill: 50°   Ceiling: Unl
Heat Index: 50°   Visibility: 10mi
Dew Point: 36°   Wind: 6mph
Humidity: 58%   Direction: 120°ESE
Pressure: 29.82"   Gusts: NA
Location:  39.2734°N, 84.7476°W
Report Text: KI67 222035Z AUTO 12005KT 10SM SCT100 10/02 A2982 RMK AO1
Loading
Personal Weather Stations






























Interactive Weather Map New forecast layout! Learn more

10-Day Weather Forecast

Advertisements
Track Severe Weather on mobile